• Join FlightAware (Why Join?)
  • Login
  • US Flag 
06:10PM EST


 

Airport Tracker/Info


-or-


 

Live Flight TrackerFlight Track Log ✈ UAL3740 ✈ 22-Apr-2013 ✈ KPVD - KIAD

Flight Track Log - Related Links

Times and Time Zones

All times are in EDT time to prevent confusion due to time zone crossing. See the UAL3740 flight status page for this flight to view local times or setup timezone preferences in your user account.

Time Position Orientation Groundspeed Altitude Reporting Facility
EDT Latitude Longitude Course Direction KTS MPH feet Rate Location/Type
10:14AM 41.7833 -71.4378 345° North 200 230 2,800  Level Boston Center
10:16AM 41.8758 -71.5589 316° Northwest 272 313 7,700 2,566 Climbing Boston Center
10:17AM 41.9017 -71.6619 289° West 278 320 10,200 1,950 Climbing Boston Center
10:18AM 41.9378 -71.7647 295° West 321 369 11,600 2,050 Climbing Boston Center
10:19AM 41.9928 -71.8925 300° West 351 404 14,300 1,700 Climbing Boston Center
10:20AM 42.0411 -72.0039 300° West 371 427 15,000 350 Climbing Boston Center
10:21AM 42.1042 -72.1492 300° West 397 457 15,000 900 Level Boston Center
10:22AM 42.1336 -72.2722 288° West 397 457 16,800 2,100 Climbing Boston Center
10:23AM 42.1419 -72.4119 275° West 377 434 19,200 2,200 Climbing Boston Center
10:24AM 42.1522 -72.5606 275° West 377 434 21,200 1,750 Climbing Boston Center
10:25AM 42.1583 -72.6978 273° West 370 426 22,700 1,400 Climbing Boston Center
10:26AM 42.1058 -72.8178 240° Southwest 350 403 24,000 1,000 Climbing Boston Center
10:27AM 42.0408 -72.9097 226° Southwest 356 410 24,700 1,250 Climbing Boston Center
10:28AM 41.9508 -73.0264 224° Southwest 395 455 26,500 1,600 Climbing Boston Center
10:29AM 41.8753 -73.1289 225° Southwest 406 467 27,900 1,700 Climbing Boston Center
10:30AM 41.7994 -73.2336 226° Southwest 399 459 29,900 1,050 Climbing Boston Center
10:31AM 41.7217 -73.3328 224° Southwest 387 445 30,000 50 Climbing Boston Center
10:32AM 41.6436 -73.4403 226° Southwest 387 445 30,000  Level Boston Center
10:33AM 41.5656 -73.5417 224° Southwest 392 451 30,000  Level Boston Center
10:34AM 41.4917 -73.6372 224° Southwest 386 444 30,000  Level Boston Center
10:35AM 41.4175 -73.7411 226° Southwest 386 444 30,000  Level Boston Center
10:37AM 41.3950 -73.9017 259° West 361 415 30,000  Level New York Center
10:38AM 41.4075 -74.0517 276° West 373 429 30,000  Level New York Center
10:39AM 41.3625 -74.1683 243° Southwest 358 412 30,000  Level New York Center
10:40AM 41.2856 -74.2389 215° Southwest 357 411 30,000  Level New York Center
10:41AM 41.1958 -74.3197 214° Southwest 364 419 30,000 -397 Level New York Center
10:42AM 41.1100 -74.3978 214° Southwest 383 441 29,200 -908 Descending New York Center
10:43AM 41.0242 -74.4786 215° Southwest 383 441 28,200 -600 Descending New York Center
10:44AM 40.9364 -74.5589 215° Southwest 388 447 28,000 -101 Descending New York Center
10:45AM 40.8722 -74.6678 232° Southwest 374 430 28,000  Level New York Center
10:46AM 40.8339 -74.8192 252° West 374 430 28,000  Level New York Center
10:47AM 40.7939 -74.9483 248° West 390 449 28,000  Level New York Center
10:48AM 40.7536 -75.0883 249° West 402 463 28,000  Level New York Center
10:49AM 40.7272 -75.2344 257° West 408 470 28,000  Level New York Center
10:50AM 40.6600 -75.3586 235° Southwest 414 476 28,000  Level New York Center
10:51AM 40.5906 -75.4825 234° Southwest 414 476 28,000 -908 Level New York Center
10:52AM 40.5233 -75.5981 233° Southwest 419 482 26,200 -2,186 Descending New York Center
10:53AM 40.4581 -75.7136 233° Southwest 414 476 23,700 -2,500 Descending New York Center
10:54AM 40.3906 -75.8286 232° Southwest 414 476 21,200 -1,850 Descending New York Center
10:55AM 40.3211 -75.9433 232° Southwest 409 471 20,000 -700 Descending New York Center
10:56AM 40.2600 -76.0503 233° Southwest 396 456 19,800 -645 Descending New York Center
10:57AM 40.1989 -76.1572 233° Southwest 382 440 18,700 -744 Descending New York Center
10:58AM 40.1378 -76.2611 232° Southwest 382 440 18,300 -832 Descending New York Center
11:00AM 40.0167 -76.5333 240° Southwest 353 406 15,900 -950 Descending Potomac TRACON
11:01AM 39.9667 -76.6333 237° Southwest 354 407 15,100 -446 Descending Potomac TRACON
11:02AM 39.9000 -76.7500 233° Southwest 361 415 15,000 -52 Descending Potomac TRACON
11:03AM 39.8667 -76.8333 242° Southwest 348 400 15,000 -526 Level Potomac TRACON
11:04AM 39.8167 -76.9500 241° Southwest 347 399 14,000 -1,100 Descending Potomac TRACON
11:05AM 39.7667 -77.0500 237° Southwest 346 398 12,800 -1,350 Descending Potomac TRACON
11:06AM 39.7167 -77.1667 241° Southwest 344 396 11,300 -1,409 Descending Potomac TRACON
11:07AM 39.6667 -77.2500 232° Southwest 326 375 10,100 -678 Descending Potomac TRACON
11:08AM 39.6167 -77.3333 232° Southwest 277 319 10,000 -250 Descending Potomac TRACON
11:09AM 39.5500 -77.3500 191° South 272 313 9,600 -700 Descending Potomac TRACON
11:10AM 39.4833 -77.3500 180° South 269 310 8,600 -992 Descending Potomac TRACON
11:11AM 39.4000 -77.3667 189° South 271 312 7,600 -992 Descending Potomac TRACON
11:12AM 39.3333 -77.3667 180° South 265 305 6,600 -950 Descending Potomac TRACON
11:13AM 39.2500 -77.3667 180° South 261 300 5,700 -991 Descending Potomac TRACON
11:14AM 39.1833 -77.3667 180° South 260 299 4,700 -887 Descending Potomac TRACON
11:15AM 39.1167 -77.3667 180° South 252 290 4,000 -300 Descending Potomac TRACON
11:16AM 39.0500 -77.3500 169° South 249 287 4,100  Climbing Potomac TRACON
11:17AM 38.9833 -77.3667 191° South 253 291 4,000 -365 Descending Potomac TRACON
11:18AM 38.9167 -77.3500 169° South 232 267 3,400 -526 Descending Potomac TRACON
11:19AM 38.8500 -77.3667 191° South 229 264 3,000 -198 Descending Potomac TRACON
11:20AM 38.7833 -77.3667 180° South 224 258 3,000 -446 Level Potomac TRACON
11:21AM 38.7500 -77.4000 218° Southwest 215 247 2,100 -500 Descending Potomac TRACON
11:22AM 38.7833 -77.4333 322° Northwest 196 226 2,000  Descending Potomac TRACON
11:23AM 38.8333 -77.4333 360° North 160 184 2,100 -300 Climbing Potomac TRACON
11:24AM 38.8667 -77.4333 360° North 144 166 1,400 -700 Descending Potomac TRACON